Time;durP1;ratioP1;P1;durP2;ratioP2;P2;SDS_P1;SDS_P2;PMS_P1;PMS_P2;Temp;Humidity;BMP_temperature;BMP_pressure;BME280_temperature;BME280_humidity;BME280_pressure;Samples;Min_cycle;Max_cycle;Signal;HPM_P1;HPM_P2
2023/10/21 00:00:27;;;;;;;15.43;3.28;;;;;;;;;;5075845;28;20478;-81
2023/10/21 00:03:13;;;;;;;10.15;2.90;;;;;;;;;;5076229;28;20056;-79
2023/10/21 00:05:58;;;;;;;10.10;2.75;;;;;;;;;;5078591;28;20040;-81
2023/10/21 00:08:44;;;;;;;10.50;3.05;;;;;;;;;;5077314;28;20047;-80
2023/10/21 00:11:29;;;;;;;10.57;2.95;;;;;;;;;;5076870;28;20399;-80
2023/10/21 00:14:15;;;;;;;9.57;3.28;;;;;;;;;;5082318;28;20490;-79
2023/10/21 00:17:00;;;;;;;8.82;2.55;;;;;;;;;;5075206;28;20463;-81
2023/10/21 00:19:45;;;;;;;11.15;2.60;;;;;;;;;;5076322;28;20032;-80
2023/10/21 00:22:30;;;;;;;11.07;2.90;;;;;;;;;;5075471;28;20059;-79
2023/10/21 00:25:15;;;;;;;9.23;2.97;;;;;;;;;;5075998;28;20467;-83
2023/10/21 00:28:03;;;;;;;11.40;3.70;;;;;;;;;;5074192;28;20368;-80
2023/10/21 00:30:48;;;;;;;12.93;3.60;;;;;;;;;;5074284;28;20444;-79
2023/10/21 00:33:33;;;;;;;11.07;3.58;;;;;;;;;;5080884;28;20047;-79
2023/10/21 00:36:19;;;;;;;13.40;3.53;;;;;;;;;;5074546;28;20395;-82
2023/10/21 00:39:10;;;;;;;11.98;3.78;;;;;;;;;;5074598;28;20048;-79
2023/10/21 00:41:55;;;;;;;13.38;3.70;;;;;;;;;;5087551;28;20040;-78
2023/10/21 00:44:40;;;;;;;15.25;3.85;;;;;;;;;;5073979;28;20051;-78
2023/10/21 00:47:25;;;;;;;15.27;3.55;;;;;;;;;;5079728;28;20401;-80
2023/10/21 00:50:10;;;;;;;14.63;4.20;;;;;;;;;;5078958;28;20481;-80
2023/10/21 00:52:55;;;;;;;12.80;3.85;;;;;;;;;;5072221;28;20044;-80
2023/10/21 00:55:40;;;;;;;10.30;3.90;;;;;;;;;;5080154;28;20067;-83
2023/10/21 00:58:27;;;;;;;16.50;4.07;;;;;;;;;;5074706;28;20043;-80
2023/10/21 01:01:13;;;;;;;14.60;4.43;;;;;;;;;;5079942;28;20480;-81
2023/10/21 01:03:59;;;;;;;12.57;4.53;;;;;;;;;;5074086;28;20466;-78
2023/10/21 01:06:44;;;;;;;17.98;5.28;;;;;;;;;;5080056;28;20395;-81
2023/10/21 01:09:30;;;;;;;17.45;4.85;;;;;;;;;;5072999;28;20032;-78
2023/10/21 01:12:14;;;;;;;13.55;3.78;;;;;;;;;;5072496;28;20051;-79
2023/10/21 01:15:00;;;;;;;18.98;4.00;;;;;;;;;;5073553;28;20043;-79
2023/10/21 01:17:52;;;;;;;13.35;3.15;;;;;;;;;;5073710;28;20051;-81
2023/10/21 01:20:39;;;;;;;15.35;3.28;;;;;;;;;;5074798;28;20467;-81
2023/10/21 01:23:25;;;;;;;13.07;3.95;;;;;;;;;;5078679;28;20436;-78
2023/10/21 01:26:11;;;;;;;9.80;3.78;;;;;;;;;;5073477;28;20047;-79
2023/10/21 01:28:56;;;;;;;14.43;4.38;;;;;;;;;;5073576;28;20467;-80
2023/10/21 01:31:41;;;;;;;11.88;3.20;;;;;;;;;;5073368;28;20043;-79
2023/10/21 01:34:26;;;;;;;9.85;3.60;;;;;;;;;;5079648;28;20383;-79
2023/10/21 01:37:10;;;;;;;12.85;4.50;;;;;;;;;;5074332;28;20036;-80
2023/10/21 01:39:55;;;;;;;13.20;3.72;;;;;;;;;;5074264;28;20391;-79
2023/10/21 01:42:41;;;;;;;18.90;4.38;;;;;;;;;;5074708;28;20455;-80
2023/10/21 01:45:26;;;;;;;13.32;3.70;;;;;;;;;;5079387;28;20039;-81
2023/10/21 01:48:11;;;;;;;22.75;6.65;;;;;;;;;;5073939;28;20390;-79
2023/10/21 01:51:01;;;;;;;10.88;4.68;;;;;;;;;;5073068;28;20047;-80
2023/10/21 01:53:46;;;;;;;15.90;4.07;;;;;;;;;;5078497;28;20063;-78
2023/10/21 01:56:30;;;;;;;14.02;4.25;;;;;;;;;;5078314;28;20062;-80
2023/10/21 01:59:16;;;;;;;16.50;5.03;;;;;;;;;;5078893;28;20546;-80
2023/10/21 02:02:01;;;;;;;20.10;4.75;;;;;;;;;;5081644;28;20404;-79
2023/10/21 02:04:46;;;;;;;17.83;4.43;;;;;;;;;;5080249;28;20051;-81
2023/10/21 02:07:32;;;;;;;11.98;4.15;;;;;;;;;;5078887;28;20039;-82
2023/10/21 02:10:17;;;;;;;21.52;4.07;;;;;;;;;;5078852;28;20395;-79
2023/10/21 02:13:02;;;;;;;13.65;4.70;;;;;;;;;;5071956;28;20044;-82
2023/10/21 02:15:47;;;;;;;17.13;4.13;;;;;;;;;;5079112;28;20079;-79
2023/10/21 02:18:31;;;;;;;13.90;4.65;;;;;;;;;;5072950;28;20396;-81
2023/10/21 02:21:16;;;;;;;14.43;4.15;;;;;;;;;;5078139;28;20414;-80
2023/10/21 02:24:01;;;;;;;17.20;4.65;;;;;;;;;;5078290;28;20475;-80
2023/10/21 02:26:46;;;;;;;12.02;4.78;;;;;;;;;;5072916;28;20043;-80
2023/10/21 02:29:31;;;;;;;10.15;4.30;;;;;;;;;;5072745;28;20399;-79
2023/10/21 02:32:16;;;;;;;12.52;4.53;;;;;;;;;;5078948;28;20381;-80
2023/10/21 02:35:02;;;;;;;15.23;4.35;;;;;;;;;;5071850;28;20522;-80
2023/10/21 02:37:47;;;;;;;10.02;3.42;;;;;;;;;;5078102;28;20047;-79
2023/10/21 02:40:32;;;;;;;11.70;4.20;;;;;;;;;;5073399;28;20391;-80
2023/10/21 02:43:17;;;;;;;12.07;4.10;;;;;;;;;;5077922;28;20040;-81
2023/10/21 02:46:08;;;;;;;13.73;3.40;;;;;;;;;;5078357;28;20489;-79
2023/10/21 02:48:54;;;;;;;12.20;3.38;;;;;;;;;;5078109;28;20391;-81
2023/10/21 02:51:39;;;;;;;16.52;4.28;;;;;;;;;;5073514;28;20040;-79
2023/10/21 02:54:25;;;;;;;11.15;3.97;;;;;;;;;;5074942;28;20047;-81
2023/10/21 02:57:10;;;;;;;16.23;4.50;;;;;;;;;;5076443;28;20102;-80
2023/10/21 02:59:55;;;;;;;19.77;4.68;;;;;;;;;;5078401;28;20040;-79
2023/10/21 03:02:42;;;;;;;16.48;4.20;;;;;;;;;;5082675;28;20047;-80
2023/10/21 03:05:26;;;;;;;16.58;3.70;;;;;;;;;;5076574;28;20024;-78
2023/10/21 03:08:11;;;;;;;14.35;3.65;;;;;;;;;;5076584;28;20482;-81
2023/10/21 03:10:57;;;;;;;13.63;3.33;;;;;;;;;;5081950;28;20051;-80
2023/10/21 03:13:42;;;;;;;18.02;8.25;;;;;;;;;;5081721;28;20044;-83
2023/10/21 03:16:29;;;;;;;17.83;8.05;;;;;;;;;;5076484;28;20070;-80
2023/10/21 03:19:14;;;;;;;17.80;5.70;;;;;;;;;;5075997;28;20044;-82
2023/10/21 03:21:59;;;;;;;14.75;6.47;;;;;;;;;;5081974;28;20071;-82
2023/10/21 03:24:44;;;;;;;14.23;5.32;;;;;;;;;;5075512;28;20153;-79
2023/10/21 03:27:30;;;;;;;9.15;4.22;;;;;;;;;;5076303;28;20375;-80
2023/10/21 03:30:16;;;;;;;15.90;4.55;;;;;;;;;;5076216;28;20449;-80
2023/10/21 03:33:02;;;;;;;20.00;4.90;;;;;;;;;;5076153;28;20036;-80
2023/10/21 03:36:05;;;;;;;13.75;4.43;;;;;;;;;;5074888;28;20051;-80
2023/10/21 03:38:51;;;;;;;15.02;4.13;;;;;;;;;;5078023;28;20098;-81
2023/10/21 03:41:36;;;;;;;18.90;4.40;;;;;;;;;;5077441;28;20048;-81
2023/10/21 03:44:21;;;;;;;19.00;4.32;;;;;;;;;;5084644;28;20466;-81
2023/10/21 03:47:06;;;;;;;13.65;4.10;;;;;;;;;;5077482;28;20125;-80
2023/10/21 03:49:50;;;;;;;15.77;4.20;;;;;;;;;;5083575;28;20462;-80
2023/10/21 03:52:35;;;;;;;17.65;4.10;;;;;;;;;;5083196;28;20367;-80
2023/10/21 03:55:21;;;;;;;18.95;3.80;;;;;;;;;;5079007;28;20040;-81
2023/10/21 03:58:07;;;;;;;11.30;3.90;;;;;;;;;;5078896;28;20045;-78
2023/10/21 04:00:53;;;;;;;19.20;4.22;;;;;;;;;;5077055;28;20504;-81
2023/10/21 04:03:39;;;;;;;12.90;3.88;;;;;;;;;;5075589;28;20051;-80
2023/10/21 04:06:24;;;;;;;16.83;3.72;;;;;;;;;;5078096;28;20058;-81
2023/10/21 04:09:11;;;;;;;20.23;3.97;;;;;;;;;;5089994;28;20051;-81
2023/10/21 04:11:56;;;;;;;18.77;4.07;;;;;;;;;;5084010;28;20030;-81
2023/10/21 04:14:42;;;;;;;15.52;3.72;;;;;;;;;;5083289;28;20032;-80
2023/10/21 04:17:27;;;;;;;10.93;3.50;;;;;;;;;;5091243;28;20044;-79
2023/10/21 04:20:12;;;;;;;15.20;3.90;;;;;;;;;;5081583;28;20056;-79
2023/10/21 04:22:58;;;;;;;14.60;3.45;;;;;;;;;;5096299;28;20035;-82
2023/10/21 04:25:43;;;;;;;16.95;3.67;;;;;;;;;;5095764;28;20363;-80
2023/10/21 04:28:28;;;;;;;11.75;3.22;;;;;;;;;;5095003;28;20050;-80
2023/10/21 04:31:14;;;;;;;12.23;3.17;;;;;;;;;;5095219;28;20394;-81
2023/10/21 04:33:59;;;;;;;10.95;2.88;;;;;;;;;;5094619;28;20046;-82
2023/10/21 04:36:45;;;;;;;12.60;3.03;;;;;;;;;;5094981;28;20058;-81
2023/10/21 04:39:30;;;;;;;17.88;2.90;;;;;;;;;;5094438;28;20394;-80
2023/10/21 04:42:16;;;;;;;10.88;2.72;;;;;;;;;;5094160;28;20047;-80
2023/10/21 04:45:02;;;;;;;11.90;2.50;;;;;;;;;;5094416;28;20477;-80
2023/10/21 04:47:48;;;;;;;13.90;2.92;;;;;;;;;;5094019;28;20069;-82
2023/10/21 04:50:32;;;;;;;12.00;2.50;;;;;;;;;;5083907;28;20047;-82
2023/10/21 04:53:18;;;;;;;15.30;2.70;;;;;;;;;;5089375;28;20047;-80
2023/10/21 04:56:04;;;;;;;13.93;2.22;;;;;;;;;;5073445;28;20032;-82
2023/10/21 04:58:49;;;;;;;11.68;2.65;;;;;;;;;;5081372;28;20474;-81
2023/10/21 05:01:35;;;;;;;18.20;5.22;;;;;;;;;;5080430;28;20051;-81
2023/10/21 05:04:21;;;;;;;15.38;4.65;;;;;;;;;;5085050;28;20379;-81
2023/10/21 05:07:06;;;;;;;22.13;4.80;;;;;;;;;;5082896;28;20052;-79
2023/10/21 05:09:52;;;;;;;14.57;5.18;;;;;;;;;;5075591;28;20039;-84
2023/10/21 05:12:37;;;;;;;15.73;4.45;;;;;;;;;;5080073;28;20462;-85
2023/10/21 05:15:23;;;;;;;19.23;3.47;;;;;;;;;;5071901;28;20498;-81
2023/10/21 05:18:08;;;;;;;13.43;3.10;;;;;;;;;;5079243;28;20395;-82
2023/10/21 05:20:54;;;;;;;19.60;3.75;;;;;;;;;;5079882;28;20051;-83
2023/10/21 05:23:39;;;;;;;14.07;3.80;;;;;;;;;;5081886;28;20487;-82
2023/10/21 05:26:25;;;;;;;12.82;3.05;;;;;;;;;;5085651;28;20044;-82
2023/10/21 05:29:11;;;;;;;13.93;3.85;;;;;;;;;;5087544;28;20048;-81
2023/10/21 05:31:56;;;;;;;14.32;3.15;;;;;;;;;;5093041;28;20035;-81
2023/10/21 05:34:42;;;;;;;12.13;3.30;;;;;;;;;;5092301;28;20402;-82
2023/10/21 05:37:27;;;;;;;12.82;3.33;;;;;;;;;;5093955;28;20402;-83
2023/10/21 05:40:13;;;;;;;13.90;3.67;;;;;;;;;;5086153;28;20046;-83
2023/10/21 05:42:57;;;;;;;12.82;3.65;;;;;;;;;;5095737;28;20387;-84
2023/10/21 05:45:43;;;;;;;8.45;3.47;;;;;;;;;;5094573;28;20383;-82
2023/10/21 05:48:27;;;;;;;12.73;3.47;;;;;;;;;;5094439;28;20454;-82
2023/10/21 05:51:12;;;;;;;17.33;4.55;;;;;;;;;;5100292;28;20050;-82
2023/10/21 05:53:57;;;;;;;19.23;4.53;;;;;;;;;;5097793;28;20046;-83
2023/10/21 05:56:42;;;;;;;22.98;4.82;;;;;;;;;;5096320;28;20048;-82
2023/10/21 05:59:28;;;;;;;20.27;8.38;;;;;;;;;;5100857;28;20477;-82
2023/10/21 06:02:13;;;;;;;22.67;6.30;;;;;;;;;;5094941;28;20229;-83
2023/10/21 06:05:00;;;;;;;21.70;5.60;;;;;;;;;;5093205;28;20469;-83
2023/10/21 06:07:45;;;;;;;16.27;5.50;;;;;;;;;;5098639;28;20482;-86
2023/10/21 06:10:29;;;;;;;17.88;5.53;;;;;;;;;;5098268;28;20395;-83
2023/10/21 06:13:15;;;;;;;19.60;5.50;;;;;;;;;;5099496;28;20457;-82
2023/10/21 06:16:01;;;;;;;21.13;6.00;;;;;;;;;;5093307;28;20039;-83
2023/10/21 06:18:46;;;;;;;18.27;5.53;;;;;;;;;;5091311;28;20039;-84
2023/10/21 06:21:31;;;;;;;13.15;5.18;;;;;;;;;;5091924;28;20065;-83
2023/10/21 06:24:15;;;;;;;;;;;;;;;;;;5094270;28;20473;-86
2023/10/21 06:27:00;;;;;;;15.60;6.30;;;;;;;;;;5084257;28;19915;-85
2023/10/21 06:29:45;;;;;;;18.48;7.75;;;;;;;;;;5096596;28;20050;-83
2023/10/21 06:32:30;;;;;;;13.63;4.47;;;;;;;;;;5089943;28;20040;-85
2023/10/21 06:35:16;;;;;;;16.85;7.65;;;;;;;;;;5089394;28;20469;-83
2023/10/21 06:38:01;;;;;;;25.15;7.78;;;;;;;;;;5090051;28;20047;-85
2023/10/21 06:40:46;;;;;;;17.15;5.72;;;;;;;;;;5096138;28;20473;-83
2023/10/21 06:43:31;;;;;;;21.02;5.25;;;;;;;;;;5076776;28;20439;-83
2023/10/21 06:46:16;;;;;;;14.23;6.07;;;;;;;;;;5083951;28;20387;-84
2023/10/21 06:49:03;;;;;;;15.05;5.70;;;;;;;;;;5082178;28;20067;-83
2023/10/21 06:51:52;;;;;;;13.40;5.47;;;;;;;;;;5083213;28;20051;-84
2023/10/21 06:54:37;;;;;;;17.38;3.88;;;;;;;;;;5067614;28;20051;-84
2023/10/21 06:57:23;;;;;;;15.27;3.10;;;;;;;;;;5081844;28;20032;-83
2023/10/21 07:00:09;;;;;;;13.73;3.97;;;;;;;;;;5076848;28;20471;-81
2023/10/21 07:02:53;;;;;;;12.02;2.63;;;;;;;;;;5085650;28;20040;-82
2023/10/21 07:05:40;;;;;;;10.57;2.72;;;;;;;;;;5083039;28;20043;-85
2023/10/21 07:08:25;;;;;;;14.00;3.55;;;;;;;;;;5082442;28;20032;-86
2023/10/21 07:11:10;;;;;;;11.80;3.42;;;;;;;;;;5082677;28;20054;-84
2023/10/21 07:13:55;;;;;;;13.40;3.30;;;;;;;;;;5081636;28;20043;-82
2023/10/21 07:16:40;;;;;;;14.15;3.63;;;;;;;;;;5082651;28;20467;-84
2023/10/21 07:19:25;;;;;;;16.25;5.03;;;;;;;;;;5076216;28;20391;-84
2023/10/21 07:22:11;;;;;;;25.17;7.65;;;;;;;;;;5081327;28;20047;-83
2023/10/21 07:25:05;;;;;;;31.63;10.98;;;;;;;;;;5083238;28;20047;-87
2023/10/21 07:27:53;;;;;;;23.30;9.02;;;;;;;;;;5080316;28;20047;-85
2023/10/21 07:30:39;;;;;;;22.55;7.70;;;;;;;;;;5075699;28;20473;-83
2023/10/21 07:33:24;;;;;;;23.65;8.88;;;;;;;;;;5092006;28;20039;-84
2023/10/21 07:36:09;;;;;;;33.75;15.15;;;;;;;;;;5096799;28;20046;-84
2023/10/21 07:38:54;;;;;;;24.45;8.65;;;;;;;;;;5103256;28;20043;-85
2023/10/21 07:41:43;;;;;;;23.27;5.13;;;;;;;;;;5087857;28;20042;-82
2023/10/21 07:44:28;;;;;;;16.75;3.75;;;;;;;;;;5103865;28;20378;-83
2023/10/21 07:47:13;;;;;;;13.82;3.33;;;;;;;;;;5099301;28;20053;-82
2023/10/21 07:50:02;;;;;;;18.42;3.88;;;;;;;;;;5107628;27;20062;-84
2023/10/21 07:52:47;;;;;;;17.50;3.65;;;;;;;;;;5095495;27;20052;-83
2023/10/21 07:55:32;;;;;;;18.20;3.55;;;;;;;;;;5105586;27;20035;-81
2023/10/21 07:58:18;;;;;;;21.10;4.28;;;;;;;;;;5100523;27;20054;-83
2023/10/21 08:01:03;;;;;;;15.02;3.63;;;;;;;;;;5100329;27;20502;-85
2023/10/21 08:03:48;;;;;;;23.48;3.45;;;;;;;;;;5099208;27;20045;-84
2023/10/21 08:06:34;;;;;;;19.67;4.20;;;;;;;;;;5098419;27;20038;-83
2023/10/21 08:09:20;;;;;;;17.52;4.43;;;;;;;;;;5098430;27;20401;-84
2023/10/21 08:12:05;;;;;;;20.60;4.55;;;;;;;;;;5097549;27;20047;-84
2023/10/21 08:14:51;;;;;;;20.58;6.63;;;;;;;;;;5098482;27;20042;-84
2023/10/21 08:17:36;;;;;;;14.88;4.15;;;;;;;;;;5096402;27;20050;-83
2023/10/21 08:20:21;;;;;;;17.35;3.50;;;;;;;;;;5106558;27;20402;-84
2023/10/21 08:23:07;;;;;;;15.65;4.03;;;;;;;;;;5099217;27;20027;-84
2023/10/21 08:25:53;;;;;;;15.23;3.88;;;;;;;;;;5096317;27;20042;-82
2023/10/21 08:28:38;;;;;;;20.55;5.35;;;;;;;;;;5097416;27;20055;-83
2023/10/21 08:31:24;;;;;;;25.45;4.70;;;;;;;;;;5102441;27;20500;-85
2023/10/21 08:34:15;;;;;;;14.65;3.78;;;;;;;;;;5097132;27;20042;-83
2023/10/21 08:37:04;;;;;;;24.48;7.45;;;;;;;;;;5094432;27;20050;-83
2023/10/21 08:39:49;;;;;;;15.57;4.70;;;;;;;;;;5092217;27;20047;-84
2023/10/21 08:42:35;;;;;;;26.50;4.75;;;;;;;;;;5099318;27;20529;-85
2023/10/21 08:45:19;;;;;;;18.15;4.63;;;;;;;;;;5100457;27;20052;-84
2023/10/21 08:48:05;;;;;;;17.67;4.72;;;;;;;;;;5093267;27;20394;-83
2023/10/21 08:50:51;;;;;;;16.08;3.92;;;;;;;;;;5094392;27;20051;-82
2023/10/21 08:53:38;;;;;;;17.17;4.00;;;;;;;;;;5095243;27;20044;-85
2023/10/21 08:56:22;;;;;;;23.42;5.55;;;;;;;;;;5101099;27;20058;-86
2023/10/21 08:59:07;;;;;;;37.08;6.90;;;;;;;;;;5094070;27;20040;-84
2023/10/21 09:01:53;;;;;;;23.40;7.53;;;;;;;;;;5101356;27;20046;-82
2023/10/21 09:04:37;;;;;;;21.67;6.25;;;;;;;;;;5095056;27;20051;-85
2023/10/21 09:07:23;;;;;;;26.85;8.82;;;;;;;;;;5085820;27;20502;-87
2023/10/21 09:10:11;;;;;;;34.50;10.05;;;;;;;;;;5096495;27;20494;-85
2023/10/21 09:12:56;;;;;;;27.98;9.48;;;;;;;;;;5094887;27;20485;-86
2023/10/21 09:15:42;;;;;;;37.85;11.95;;;;;;;;;;5102506;27;20040;-87
2023/10/21 09:18:28;;;;;;;25.48;8.73;;;;;;;;;;5102327;27;20038;-84
2023/10/21 09:21:14;;;;;;;18.70;5.88;;;;;;;;;;5102508;27;20040;-85
2023/10/21 09:24:02;;;;;;;23.40;5.97;;;;;;;;;;5096482;27;20386;-84
2023/10/21 09:26:48;;;;;;;21.83;5.68;;;;;;;;;;5092634;27;20420;-85
2023/10/21 09:29:33;;;;;;;19.23;5.15;;;;;;;;;;5097310;27;20047;-84
2023/10/21 09:32:26;;;;;;;13.65;4.57;;;;;;;;;;5104994;27;20469;-83
2023/10/21 09:35:24;;;;;;;20.40;4.93;;;;;;;;;;5099899;27;20031;-84
2023/10/21 09:38:16;;;;;;;17.60;4.40;;;;;;;;;;5106468;27;20031;-82
2023/10/21 09:41:02;;;;;;;27.77;4.90;;;;;;;;;;5097398;27;20034;-84
2023/10/21 09:43:51;;;;;;;18.25;4.53;;;;;;;;;;5110541;27;20032;-83
2023/10/21 09:46:40;;;;;;;21.42;5.15;;;;;;;;;;5114146;27;20050;-82
2023/10/21 09:49:26;;;;;;;20.08;4.72;;;;;;;;;;5104356;27;20469;-80
2023/10/21 09:52:15;;;;;;;20.02;4.05;;;;;;;;;;5105482;27;20038;-81
2023/10/21 09:55:10;;;;;;;25.45;5.32;;;;;;;;;;5102130;27;20043;-82
2023/10/21 09:57:57;;;;;;;21.85;5.57;;;;;;;;;;5103563;27;20482;-82
2023/10/21 10:00:43;;;;;;;15.27;4.82;;;;;;;;;;5102422;27;20038;-81
2023/10/21 10:03:34;;;;;;;25.63;5.85;;;;;;;;;;5102140;27;20042;-83
2023/10/21 10:06:19;;;;;;;19.38;5.28;;;;;;;;;;5110031;27;20030;-83
2023/10/21 10:09:06;;;;;;;26.13;5.82;;;;;;;;;;5103081;27;20468;-84
2023/10/21 10:11:52;;;;;;;22.48;5.93;;;;;;;;;;5098450;27;20035;-82
2023/10/21 10:14:38;;;;;;;23.73;6.25;;;;;;;;;;5096467;28;20046;-81
2023/10/21 10:17:42;;;;;;;22.45;5.90;;;;;;;;;;5103556;27;20058;-84
2023/10/21 10:20:28;;;;;;;22.50;6.13;;;;;;;;;;5104907;27;20050;-81
2023/10/21 10:23:14;;;;;;;27.30;6.50;;;;;;;;;;5095941;28;20453;-83
2023/10/21 10:26:01;;;;;;;22.25;5.65;;;;;;;;;;5102220;27;20796;-83
2023/10/21 10:28:46;;;;;;;27.85;6.03;;;;;;;;;;5095202;28;20409;-82
2023/10/21 10:31:31;;;;;;;19.35;5.95;;;;;;;;;;5094287;28;20042;-83
2023/10/21 10:34:17;;;;;;;21.15;5.97;;;;;;;;;;5100574;27;20413;-85
2023/10/21 10:37:03;;;;;;;20.92;5.88;;;;;;;;;;5095779;28;21144;-84
2023/10/21 10:39:48;;;;;;;18.30;7.43;;;;;;;;;;5101709;27;20035;-83
2023/10/21 10:42:35;;;;;;;27.98;7.30;;;;;;;;;;5086972;27;20125;-83
2023/10/21 10:45:20;;;;;;;26.17;7.03;;;;;;;;;;5102712;27;20698;-83
2023/10/21 10:48:09;;;;;;;22.90;7.93;;;;;;;;;;5094306;28;20038;-83
2023/10/21 10:50:58;;;;;;;30.33;7.57;;;;;;;;;;5094530;28;20386;-83
2023/10/21 10:53:55;;;;;;;22.92;7.43;;;;;;;;;;5082790;27;20490;-83
2023/10/21 10:56:43;;;;;;;28.17;7.95;;;;;;;;;;5098217;27;20094;-85
2023/10/21 10:59:28;;;;;;;34.20;8.68;;;;;;;;;;5091636;28;20034;-84
2023/10/21 11:02:16;;;;;;;25.70;8.43;;;;;;;;;;5094245;28;20042;-84
2023/10/21 11:05:06;;;;;;;30.25;9.85;;;;;;;;;;5095928;28;20043;-83
2023/10/21 11:07:52;;;;;;;31.38;8.70;;;;;;;;;;5100034;27;20046;-85
2023/10/21 11:10:37;;;;;;;28.98;9.23;;;;;;;;;;5100711;27;20038;-85
2023/10/21 11:13:22;;;;;;;26.25;8.63;;;;;;;;;;5096567;27;20043;-85
2023/10/21 11:16:08;;;;;;;30.85;6.82;;;;;;;;;;5099005;27;20055;-84
2023/10/21 11:18:54;;;;;;;21.20;5.93;;;;;;;;;;5098414;27;20395;-83
2023/10/21 11:21:41;;;;;;;23.50;5.85;;;;;;;;;;5106102;27;20413;-83
2023/10/21 11:24:26;;;;;;;24.05;6.20;;;;;;;;;;5105217;27;20044;-83
2023/10/21 11:27:13;;;;;;;26.20;6.07;;;;;;;;;;5098659;27;20031;-83
2023/10/21 11:29:57;;;;;;;32.30;11.50;;;;;;;;;;5099924;27;20055;-83
2023/10/21 11:32:42;;;;;;;38.58;10.73;;;;;;;;;;5099791;27;20394;-83
2023/10/21 11:35:29;;;;;;;31.42;10.38;;;;;;;;;;5106361;27;20050;-84
2023/10/21 11:38:18;;;;;;;34.65;9.68;;;;;;;;;;5111436;27;20477;-84
2023/10/21 11:41:10;;;;;;;29.83;9.45;;;;;;;;;;5113070;27;20042;-84
2023/10/21 11:43:56;;;;;;;31.15;9.57;;;;;;;;;;5103811;27;20494;-83
2023/10/21 11:46:41;;;;;;;41.83;11.43;;;;;;;;;;5104325;27;20398;-84
2023/10/21 11:49:27;;;;;;;51.22;12.10;;;;;;;;;;5102137;27;20489;-83
2023/10/21 11:52:12;;;;;;;37.10;11.15;;;;;;;;;;5103328;27;20046;-83
2023/10/21 12:37:52;;;;;;;48.38;13.98;;;;;;;;;;5104145;27;20054;-88
2023/10/21 12:46:14;;;;;;;31.73;9.25;;;;;;;;;;5102831;27;20465;-85
2023/10/21 12:49:07;;;;;;;38.15;9.65;;;;;;;;;;5104643;27;20226;-84
2023/10/21 12:51:53;;;;;;;35.78;9.10;;;;;;;;;;5103587;27;20035;-85
2023/10/21 12:54:39;;;;;;;33.85;10.25;;;;;;;;;;5102716;27;20046;-83
2023/10/21 12:57:24;;;;;;;25.30;9.05;;;;;;;;;;5089146;27;20058;-83
2023/10/21 13:00:09;;;;;;;27.88;8.40;;;;;;;;;;5098695;27;20387;-82
2023/10/21 13:02:55;;;;;;;34.78;9.70;;;;;;;;;;5103172;27;20492;-82
2023/10/21 13:05:43;;;;;;;51.53;10.15;;;;;;;;;;5104310;27;20056;-86
2023/10/21 13:08:28;;;;;;;41.45;9.38;;;;;;;;;;5099756;27;20481;-84
2023/10/21 13:11:16;;;;;;;37.03;9.30;;;;;;;;;;5096782;27;20393;-85
2023/10/21 13:14:01;;;;;;;33.67;10.73;;;;;;;;;;5105259;27;20410;-83
2023/10/21 13:16:47;;;;;;;36.28;9.48;;;;;;;;;;5100500;27;20482;-83
2023/10/21 13:19:32;;;;;;;32.80;10.00;;;;;;;;;;5093651;27;20061;-83
2023/10/21 13:22:18;;;;;;;31.88;8.25;;;;;;;;;;5102083;27;20062;-83
2023/10/21 13:25:07;;;;;;;28.00;7.70;;;;;;;;;;5091066;27;20046;-83
2023/10/21 13:27:53;;;;;;;30.77;9.80;;;;;;;;;;5094460;27;20367;-86
2023/10/21 13:30:38;;;;;;;42.05;10.75;;;;;;;;;;5095425;27;20394;-84
2023/10/21 13:33:24;;;;;;;35.20;9.50;;;;;;;;;;5106556;27;20050;-84
2023/10/21 13:36:10;;;;;;;34.70;12.45;;;;;;;;;;5099918;27;20046;-86
2023/10/21 13:38:55;;;;;;;41.38;13.10;;;;;;;;;;5096845;27;20547;-82
2023/10/21 13:41:40;;;;;;;55.03;13.65;;;;;;;;;;5104208;27;20038;-83
2023/10/21 13:44:25;;;;;;;42.53;12.25;;;;;;;;;;5094589;27;20046;-82
2023/10/21 13:47:21;;;;;;;40.10;10.43;;;;;;;;;;5096224;27;20050;-84
2023/10/21 13:50:13;;;;;;;29.63;8.13;;;;;;;;;;5100405;27;20481;-83
2023/10/21 13:53:11;;;;;;;37.53;9.15;;;;;;;;;;5104578;27;20032;-81
2023/10/21 13:55:56;;;;;;;41.42;15.90;;;;;;;;;;5099330;27;20042;-83
2023/10/21 13:58:41;;;;;;;35.72;9.68;;;;;;;;;;5099088;27;20394;-83
2023/10/21 14:01:27;;;;;;;50.33;10.38;;;;;;;;;;5097691;27;20043;-84
2023/10/21 14:04:14;;;;;;;37.72;9.30;;;;;;;;;;5105647;27;20034;-82
2023/10/21 14:06:59;;;;;;;30.77;7.60;;;;;;;;;;5105647;27;20481;-82
2023/10/21 14:09:44;;;;;;;35.97;7.28;;;;;;;;;;5105471;27;20050;-84
2023/10/21 14:12:29;;;;;;;40.40;7.32;;;;;;;;;;5099292;27;20035;-82
2023/10/21 14:15:18;;;;;;;37.13;6.75;;;;;;;;;;5105989;27;20525;-85
2023/10/21 14:18:06;;;;;;;44.67;7.10;;;;;;;;;;5098992;28;20465;-82
2023/10/21 14:20:53;;;;;;;38.97;6.80;;;;;;;;;;5105583;27;20042;-83
2023/10/21 14:23:38;;;;;;;35.00;6.80;;;;;;;;;;5099121;28;20050;-83
2023/10/21 14:26:23;;;;;;;37.67;7.63;;;;;;;;;;5098511;28;20027;-84
2023/10/21 14:29:08;;;;;;;39.65;8.10;;;;;;;;;;5086625;28;20054;-85
2023/10/21 14:31:53;;;;;;;35.58;7.28;;;;;;;;;;5099310;28;20029;-84
2023/10/21 14:34:38;;;;;;;27.83;6.63;;;;;;;;;;5106350;27;20386;-85
2023/10/21 14:37:23;;;;;;;31.23;6.47;;;;;;;;;;5096219;28;20075;-83
2023/10/21 14:40:11;;;;;;;;;;;;;;;;;;5105197;27;20031;-86
2023/10/21 14:42:56;;;;;;;35.63;8.32;;;;;;;;;;5105631;27;20349;-84
2023/10/21 14:45:43;;;;;;;39.00;8.27;;;;;;;;;;5090060;27;20044;-83
2023/10/21 14:48:28;;;;;;;36.38;11.75;;;;;;;;;;5106395;27;20385;-84
2023/10/21 14:51:13;;;;;;;41.88;11.32;;;;;;;;;;5096569;27;20473;-84
2023/10/21 14:53:59;;;;;;;43.75;11.52;;;;;;;;;;5104650;27;20034;-88
2023/10/21 14:56:43;;;;;;;37.00;9.05;;;;;;;;;;5111582;27;20050;-84
2023/10/21 14:59:29;;;;;;;41.17;9.10;;;;;;;;;;5103287;27;20373;-84
2023/10/21 15:02:13;;;;;;;33.50;8.05;;;;;;;;;;5098104;27;20034;-85
2023/10/21 15:04:59;;;;;;;40.03;8.27;;;;;;;;;;5111531;27;21539;-85
2023/10/21 15:07:44;;;;;;;42.50;7.68;;;;;;;;;;5104062;27;20036;-85
2023/10/21 15:10:29;;;;;;;34.05;8.20;;;;;;;;;;5103509;27;20461;-84
2023/10/21 15:13:15;;;;;;;34.72;7.35;;;;;;;;;;5102080;27;20398;-84
2023/10/21 15:16:01;;;;;;;37.03;8.77;;;;;;;;;;5106141;27;20039;-84
2023/10/21 15:18:47;;;;;;;44.08;10.85;;;;;;;;;;5100643;27;20496;-84
2023/10/21 15:21:32;;;;;;;42.88;9.57;;;;;;;;;;5100826;27;20043;-84
2023/10/21 15:24:16;;;;;;;47.45;9.35;;;;;;;;;;5115122;27;20047;-84
2023/10/21 15:27:02;;;;;;;39.47;10.13;;;;;;;;;;5112906;27;20045;-83
2023/10/21 15:29:47;;;;;;;51.08;13.27;;;;;;;;;;5089003;27;20413;-83
2023/10/21 15:32:32;;;;;;;47.45;12.25;;;;;;;;;;5104988;27;20110;-83
2023/10/21 15:35:25;;;;;;;47.38;14.02;;;;;;;;;;5090270;27;20520;-83
2023/10/21 15:38:24;;;;;;;53.08;14.48;;;;;;;;;;5101264;27;20042;-84
2023/10/21 15:41:32;;;;;;;55.10;16.98;;;;;;;;;;5106397;27;20066;-80
2023/10/21 15:44:38;;;;;;;59.53;17.13;;;;;;;;;;5102881;27;20050;-84
2023/10/21 15:47:29;;;;;;;58.65;16.63;;;;;;;;;;5114554;27;20037;-82
2023/10/21 15:50:13;;;;;;;60.95;18.90;;;;;;;;;;5108444;27;20034;-83
2023/10/21 15:53:19;;;;;;;69.78;24.23;;;;;;;;;;5105637;27;20042;-84
2023/10/21 15:56:06;;;;;;;59.15;22.33;;;;;;;;;;5100291;27;20046;-82
2023/10/21 15:58:51;;;;;;;60.88;21.73;;;;;;;;;;5098466;27;20465;-81
2023/10/21 16:01:37;;;;;;;80.32;26.30;;;;;;;;;;5098600;27;20386;-80
2023/10/21 16:04:22;;;;;;;81.90;31.77;;;;;;;;;;5103927;27;20374;-80
2023/10/21 16:07:09;;;;;;;67.15;23.90;;;;;;;;;;5104074;27;20043;-82
2023/10/21 16:09:54;;;;;;;71.97;26.13;;;;;;;;;;5101175;27;20482;-80
2023/10/21 16:12:39;;;;;;;72.43;28.27;;;;;;;;;;5103466;27;20074;-81
2023/10/21 16:15:27;;;;;;;71.55;25.80;;;;;;;;;;5097181;27;20050;-82
2023/10/21 16:18:12;;;;;;;67.45;24.60;;;;;;;;;;5097138;27;20058;-80
2023/10/21 16:20:57;;;;;;;68.28;24.30;;;;;;;;;;5102735;27;20047;-83
2023/10/21 16:23:42;;;;;;;71.00;21.75;;;;;;;;;;5092757;28;20390;-81
2023/10/21 16:26:26;;;;;;;70.05;23.30;;;;;;;;;;5093222;28;20493;-79
2023/10/21 16:29:14;;;;;;;78.13;28.92;;;;;;;;;;5092475;28;20397;-83
2023/10/21 16:31:59;;;;;;;66.32;24.83;;;;;;;;;;5083727;28;20421;-78
2023/10/21 16:34:44;;;;;;;62.75;23.75;;;;;;;;;;5087406;28;20051;-80
2023/10/21 16:37:29;;;;;;;85.25;30.92;;;;;;;;;;5088141;28;20478;-81
2023/10/21 16:40:15;;;;;;;69.75;29.10;;;;;;;;;;5088553;28;20474;-81
2023/10/21 16:43:01;;;;;;;45.38;11.57;;;;;;;;;;5081215;28;20393;-78
2023/10/21 16:45:46;;;;;;;34.55;8.52;;;;;;;;;;5090938;28;20101;-80
2023/10/21 16:48:33;;;;;;;27.95;6.97;;;;;;;;;;5082098;28;20499;-80
2023/10/21 16:51:17;;;;;;;28.42;7.50;;;;;;;;;;5083605;28;20031;-83
2023/10/21 16:54:03;;;;;;;28.67;7.93;;;;;;;;;;5090775;28;20474;-80
2023/10/21 16:56:48;;;;;;;25.90;5.88;;;;;;;;;;5086598;28;20042;-79
2023/10/21 16:59:34;;;;;;;21.58;5.93;;;;;;;;;;5084231;28;20062;-83
2023/10/21 17:02:19;;;;;;;24.42;6.15;;;;;;;;;;5081824;28;20386;-80
2023/10/21 17:05:04;;;;;;;24.92;6.63;;;;;;;;;;5082534;28;20477;-83
2023/10/21 17:07:50;;;;;;;27.98;6.00;;;;;;;;;;5089469;28;20390;-83